1861 NOT_NAMED (1861039S10077)


IBTrACS version v04r00. Visit IBTrACS website for data access.
Please direct all questions to the IBTrACS Q and A forum

Storm track - Intensity - Wind Radii - Intensity Data - Source Data - All data

Summary Information

Storm ID 1861039S10077
Start Feb 7 18Z
End Feb 18 06Z
ATCF IDs
Track status Best track data.

Storm track plot

Map of storm track

Intensity plots

No Intensity information for this storm


Radial wind information

No radial wind information for this storm


Position and Intensity Table

BASIN ISO_TIME_________ NATURE LAT LON
degrees north degrees east
SI 1861-02-07 18:00:00 NR -9.90 76.90
SI 21:00:00 NR -10.21 76.75
SI 1861-02-08 00:00:00 NR -10.52 76.61
SI 03:00:00 NR -10.82 76.49
SI 06:00:00 NR -11.10 76.40
SI 09:00:00 NR -11.37 76.34
SI 12:00:00 NR -11.62 76.31
SI 15:00:00 NR -11.87 76.30
SI 18:00:00 NR -12.10 76.30
SI 21:00:00 NR -12.34 76.28
SI 1861-02-09 00:00:00 NR -12.57 76.28
SI 03:00:00 NR -12.79 76.28
SI 06:00:00 NR -13.00 76.30
SI 09:00:00 NR -13.20 76.34
SI 12:00:00 NR -13.38 76.38
SI 15:00:00 NR -13.55 76.44
SI 18:00:00 NR -13.70 76.50
SI 21:00:00 NR -13.84 76.55
SI 1861-02-10 00:00:00 NR -13.97 76.59
SI 03:00:00 NR -14.09 76.64
SI 06:00:00 NR -14.20 76.70
SI 09:00:00 NR -14.31 76.78
SI 12:00:00 NR -14.42 76.86
SI 15:00:00 NR -14.51 76.94
SI 18:00:00 NR -14.60 77.00
SI 21:00:00 NR -14.69 77.04
SI 1861-02-11 00:00:00 NR -14.76 77.06
SI 03:00:00 NR -14.84 77.08
SI 06:00:00 NR -14.90 77.10
SI 09:00:00 NR -14.95 77.14
SI 12:00:00 NR -15.00 77.19
SI 15:00:00 NR -15.05 77.24
SI 18:00:00 NR -15.10 77.30
SI 21:00:00 NR -15.16 77.36
SI 1861-02-12 00:00:00 NR -15.22 77.44
SI 03:00:00 NR -15.30 77.51
SI 06:00:00 NR -15.40 77.60
SI 09:00:00 NR -15.54 77.69
SI 12:00:00 NR -15.70 77.79
SI 15:00:00 NR -15.86 77.90
SI 18:00:00 NR -16.00 78.00
SI 21:00:00 NR -16.09 78.10
SI 1861-02-13 00:00:00 NR -16.16 78.20
SI 03:00:00 NR -16.23 78.30
SI 06:00:00 NR -16.30 78.40
SI 09:00:00 NR -16.40 78.50
SI 12:00:00 NR -16.50 78.59
SI 15:00:00 NR -16.60 78.69
SI 18:00:00 NR -16.70 78.80
SI 21:00:00 NR -16.77 78.92
SI 1861-02-14 00:00:00 NR -16.84 79.05
SI 03:00:00 NR -16.91 79.18
SI 06:00:00 NR -17.00 79.30
SI 09:00:00 NR -17.11 79.40
SI 12:00:00 NR -17.24 79.50
SI 15:00:00 NR -17.37 79.60
SI 18:00:00 NR -17.50 79.70
SI 21:00:00 NR -17.61 79.82
SI 1861-02-15 00:00:00 NR -17.71 79.95
SI 03:00:00 NR -17.80 80.08
SI 06:00:00 NR -17.90 80.20
SI 09:00:00 NR -18.00 80.30
SI 12:00:00 NR -18.10 80.40
SI 15:00:00 NR -18.20 80.50
SI 18:00:00 NR -18.30 80.60
SI 21:00:00 NR -18.39 80.70
SI 1861-02-16 00:00:00 NR -18.48 80.81
SI 03:00:00 NR -18.59 80.94
SI 06:00:00 NR -18.70 81.10
SI 09:00:00 NR -18.83 81.29
SI 12:00:00 NR -18.97 81.51
SI 15:00:00 NR -19.13 81.75
SI 18:00:00 NR -19.30 82.00
SI 21:00:00 NR -19.49 82.25
SI 1861-02-17 00:00:00 NR -19.70 82.51
SI 03:00:00 NR -19.91 82.76
SI 06:00:00 NR -20.10 83.00
SI 09:00:00 NR -20.26 83.21
SI 12:00:00 NR -20.41 83.41
SI 15:00:00 NR -20.56 83.60
SI 18:00:00 NR -20.70 83.80
SI 21:00:00 NR -20.85 84.01
SI 1861-02-18 00:00:00 NR -21.00 84.23
SI 03:00:00 NR -21.15 84.47
SI 06:00:00 NR -21.30 84.70

Source Information

Agency Information
USA
TOKYO
CMA
HKO
NEWDELHI
REUNION
BOM
NADI
WELLINGTON
DS824
TD9636 cons_worldwide_trop_cyclone_18710101-19891231-005:Line=452
TD9635
NEUMANN
MLC

All available IBTrACS Data

SEASON BASIN SUBBASIN ISO_TIME_________ NATURE LAT LON DIST2LAND LANDFALL IFLAG USA SSHS TD9636 LAT TD9636 LON TD9636 STAGE STORM SPEED STORM DIR
Year degrees north degrees east km km 1 degrees north degrees east kts degrees
1861 SI MM 1861-02-07 18:00:00 NR -9.90 76.90 1817 1817 __________O___ -1 -9.90 76.90 7 7 206
1861 SI MM 21:00:00 NR -10.21 76.75 1852 1852 __________P___ -1 -10.21 76.75 7 7 205
1861 SI MM 1861-02-08 00:00:00 NR -10.52 76.61 1890 1890 __________P___ -1 -10.52 76.61 7 7 203
1861 SI MM 03:00:00 NR -10.82 76.49 1925 1925 __________P___ -1 -10.82 76.49 7 6 200
1861 SI MM 06:00:00 NR -11.10 76.40 1960 1960 __________O___ -1 -11.10 76.40 7 6 195
1861 SI MM 09:00:00 NR -11.37 76.34 1996 1996 __________P___ -1 -11.37 76.34 7 5 189
1861 SI MM 12:00:00 NR -11.62 76.31 2017 2017 __________P___ -1 -11.62 76.31 7 5 185
1861 SI MM 15:00:00 NR -11.87 76.30 2050 2050 __________P___ -1 -11.87 76.30 7 5 183
1861 SI MM 18:00:00 NR -12.10 76.30 2072 2072 __________O___ -1 -12.10 76.30 7 5 0
1861 SI MM 21:00:00 NR -12.34 76.28 2093 2093 __________P___ -1 -12.34 76.28 7 5 183
1861 SI MM 1861-02-09 00:00:00 NR -12.57 76.28 2126 2126 __________P___ -1 -12.57 76.28 7 5 0
1861 SI MM 03:00:00 NR -12.79 76.28 2141 2131 __________P___ -1 -12.79 76.28 7 4 177
1861 SI MM 06:00:00 NR -13.00 76.30 2131 2122 __________O___ -1 -13.00 76.30 7 4 173
1861 SI MM 09:00:00 NR -13.20 76.34 2122 2117 __________P___ -1 -13.20 76.34 7 4 169
1861 SI MM 12:00:00 NR -13.38 76.38 2123 2118 __________P___ -1 -13.38 76.38 7 4 164
1861 SI MM 15:00:00 NR -13.55 76.44 2118 2114 __________P___ -1 -13.55 76.44 7 3 161
1861 SI MM 18:00:00 NR -13.70 76.50 2119 2115 __________O___ -1 -13.70 76.50 7 3 160
1861 SI MM 21:00:00 NR -13.84 76.55 2115 2110 __________P___ -1 -13.84 76.55 7 3 163
1861 SI MM 1861-02-10 00:00:00 NR -13.97 76.59 2116 2112 __________P___ -1 -13.97 76.59 7 3 158
1861 SI MM 03:00:00 NR -14.09 76.64 2112 2112 __________P___ -1 -14.09 76.64 7 3 155
1861 SI MM 06:00:00 NR -14.20 76.70 2118 2114 __________O___ -1 -14.20 76.70 7 3 150
1861 SI MM 09:00:00 NR -14.31 76.78 2124 2120 __________P___ -1 -14.31 76.78 7 3 144
1861 SI MM 12:00:00 NR -14.42 76.86 2130 2126 __________P___ -1 -14.42 76.86 7 3 142
1861 SI MM 15:00:00 NR -14.51 76.94 2126 2126 __________P___ -1 -14.51 76.94 7 2 143
1861 SI MM 18:00:00 NR -14.60 77.00 2132 2128 __________O___ -1 -14.60 77.00 7 2 150
1861 SI MM 21:00:00 NR -14.69 77.04 2128 2128 __________P___ -1 -14.69 77.04 7 2 163
1861 SI MM 1861-02-11 00:00:00 NR -14.76 77.06 2135 2135 __________P___ -1 -14.76 77.06 7 2 168
1861 SI MM 03:00:00 NR -14.84 77.08 2135 2131 __________P___ -1 -14.84 77.08 7 1 161
1861 SI MM 06:00:00 NR -14.90 77.10 2131 2127 __________O___ -1 -14.90 77.10 7 1 153
1861 SI MM 09:00:00 NR -14.95 77.14 2127 2127 __________P___ -1 -14.95 77.14 7 1 143
1861 SI MM 12:00:00 NR -15.00 77.19 2138 2138 __________P___ -1 -15.00 77.19 7 1 133
1861 SI MM 15:00:00 NR -15.05 77.24 2138 2134 __________P___ -1 -15.05 77.24 7 2 132
1861 SI MM 18:00:00 NR -15.10 77.30 2144 2144 __________O___ -1 -15.10 77.30 7 2 132
1861 SI MM 21:00:00 NR -15.16 77.36 2151 2151 __________P___ -1 -15.16 77.36 7 2 133
1861 SI MM 1861-02-12 00:00:00 NR -15.22 77.44 2151 2151 __________P___ -1 -15.22 77.44 7 2 135
1861 SI MM 03:00:00 NR -15.30 77.51 2157 2157 __________P___ -1 -15.30 77.51 7 2 138
1861 SI MM 06:00:00 NR -15.40 77.60 2164 2161 __________O___ -1 -15.40 77.60 7 3 145
1861 SI MM 09:00:00 NR -15.54 77.69 2171 2168 __________P___ -1 -15.54 77.69 7 4 149
1861 SI MM 12:00:00 NR -15.70 77.79 2175 2172 __________P___ -1 -15.70 77.79 7 4 149
1861 SI MM 15:00:00 NR -15.86 77.90 2179 2179 __________P___ -1 -15.86 77.90 7 4 147
1861 SI MM 18:00:00 NR -16.00 78.00 2186 2186 __________O___ -1 -16.00 78.00 7 3 140
1861 SI MM 21:00:00 NR -16.09 78.10 2193 2193 __________P___ -1 -16.09 78.10 7 3 131
1861 SI MM 1861-02-13 00:00:00 NR -16.16 78.20 2201 2201 __________P___ -1 -16.16 78.20 7 2 125
1861 SI MM 03:00:00 NR -16.23 78.30 2211 2208 __________P___ -1 -16.23 78.30 7 2 125
1861 SI MM 06:00:00 NR -16.30 78.40 2218 2218 __________O___ -1 -16.30 78.40 7 3 131
1861 SI MM 09:00:00 NR -16.40 78.50 2226 2223 __________P___ -1 -16.40 78.50 7 3 137
1861 SI MM 12:00:00 NR -16.50 78.59 2233 2231 __________P___ -1 -16.50 78.59 7 3 137
1861 SI MM 15:00:00 NR -16.60 78.69 2241 2238 __________P___ -1 -16.60 78.69 7 3 135
1861 SI MM 18:00:00 NR -16.70 78.80 2249 2249 __________O___ -1 -16.70 78.80 7 3 128
1861 SI MM 21:00:00 NR -16.77 78.92 2256 2256 __________P___ -1 -16.77 78.92 7 3 121
1861 SI MM 1861-02-14 00:00:00 NR -16.84 79.05 2277 2275 __________P___ -1 -16.84 79.05 7 3 120
1861 SI MM 03:00:00 NR -16.91 79.18 2285 2283 __________P___ -1 -16.91 79.18 7 3 123
1861 SI MM 06:00:00 NR -17.00 79.30 2293 2293 __________O___ -1 -17.00 79.30 7 3 132
1861 SI MM 09:00:00 NR -17.11 79.40 2301 2299 __________P___ -1 -17.11 79.40 7 3 142
1861 SI MM 12:00:00 NR -17.24 79.50 2309 2307 __________P___ -1 -17.24 79.50 7 3 144
1861 SI MM 15:00:00 NR -17.37 79.60 2315 2315 __________P___ -1 -17.37 79.60 7 3 144
1861 SI MM 18:00:00 NR -17.50 79.70 2323 2323 __________O___ -1 -17.50 79.70 7 3 137
1861 SI MM 21:00:00 NR -17.61 79.82 2331 2331 __________P___ -1 -17.61 79.82 7 3 131
1861 SI MM 1861-02-15 00:00:00 NR -17.71 79.95 2350 2348 __________P___ -1 -17.71 79.95 7 3 129
1861 SI MM 03:00:00 NR -17.80 80.08 2358 2356 __________P___ -1 -17.80 80.08 7 3 129
1861 SI MM 06:00:00 NR -17.90 80.20 2367 2367 __________O___ -1 -17.90 80.20 7 3 132
1861 SI MM 09:00:00 NR -18.00 80.30 2375 2375 __________P___ -1 -18.00 80.30 7 3 136
1861 SI MM 12:00:00 NR -18.10 80.40 2384 2384 __________P___ -1 -18.10 80.40 7 3 137
1861 SI MM 15:00:00 NR -18.20 80.50 2392 2390 __________P___ -1 -18.20 80.50 7 3 136
1861 SI MM 18:00:00 NR -18.30 80.60 2401 2401 __________O___ -1 -18.30 80.60 7 3 134
1861 SI MM 21:00:00 NR -18.39 80.70 2409 2409 __________P___ -1 -18.39 80.70 7 3 132
1861 SI MM 1861-02-16 00:00:00 NR -18.48 80.81 2418 2418 __________P___ -1 -18.48 80.81 7 3 130
1861 SI MM 03:00:00 NR -18.59 80.94 2427 2427 __________P___ -1 -18.59 80.94 7 3 128
1861 SI MM 06:00:00 NR -18.70 81.10 2446 2446 __________O___ -1 -18.70 81.10 7 4 126
1861 SI MM 09:00:00 NR -18.83 81.29 2466 2464 __________P___ -1 -18.83 81.29 7 5 125
1861 SI MM 12:00:00 NR -18.97 81.51 2483 2483 __________P___ -1 -18.97 81.51 7 5 125
1861 SI MM 15:00:00 NR -19.13 81.75 2513 2512 __________P___ -1 -19.13 81.75 7 6 126
1861 SI MM 18:00:00 NR -19.30 82.00 2531 2531 __________O___ -1 -19.30 82.00 7 6 128
1861 SI MM 21:00:00 NR -19.49 82.25 2560 2559 __________P___ -1 -19.49 82.25 7 6 130
1861 SI MM 1861-02-17 00:00:00 NR -19.70 82.51 2579 2579 __________P___ -1 -19.70 82.51 7 6 131
1861 SI MM 03:00:00 NR -19.91 82.76 2608 2607 __________P___ -1 -19.91 82.76 7 6 131
1861 SI MM 06:00:00 NR -20.10 83.00 2627 2627 __________O___ -1 -20.10 83.00 7 6 130
1861 SI MM 09:00:00 NR -20.26 83.21 2645 2645 __________P___ -1 -20.26 83.21 7 5 129
1861 SI MM 12:00:00 NR -20.41 83.41 2665 2665 __________P___ -1 -20.41 83.41 7 5 129
1861 SI MM 15:00:00 NR -20.56 83.60 2685 2683 __________P___ -1 -20.56 83.60 7 5 128
1861 SI MM 18:00:00 NR -20.70 83.80 2685 2679 __________O___ -1 -20.70 83.80 7 5 127
1861 SI MM 21:00:00 NR -20.85 84.01 2681 2677 __________P___ -1 -20.85 84.01 7 5 126
1861 SI MM 1861-02-18 00:00:00 NR -21.00 84.23 2685 2675 __________P___ -1 -21.00 84.23 7 5 125
1861 SI MM 03:00:00 NR -21.15 84.47 2675 2675 __________P___ -1 -21.15 84.47 7 5 125
1861 SI MM 06:00:00 NR -21.30 84.70 2680 __________O___ -1 -21.30 84.70 7 5 125